sensor_id;sensor_type;location;lat;lon;timestamp;P1;durP1;ratioP1;P2;durP2;ratioP2
37019;SDS011;22932;52.442;16.896;2022-12-18T00:01:29;34.70;;;17.70;;
37019;SDS011;22932;52.442;16.896;2022-12-18T00:04:00;50.10;;;24.10;;
37019;SDS011;22932;52.442;16.896;2022-12-18T00:06:31;46.90;;;22.40;;
37019;SDS011;22932;52.442;16.896;2022-12-18T00:09:02;40.50;;;19.20;;
37019;SDS011;22932;52.442;16.896;2022-12-18T00:11:32;43.50;;;21.20;;
37019;SDS011;22932;52.442;16.896;2022-12-18T00:14:02;49.40;;;21.40;;
37019;SDS011;22932;52.442;16.896;2022-12-18T00:16:31;44.60;;;20.20;;
37019;SDS011;22932;52.442;16.896;2022-12-18T00:19:03;50.20;;;22.60;;
37019;SDS011;22932;52.442;16.896;2022-12-18T00:21:33;48.80;;;23.40;;
37019;SDS011;22932;52.442;16.896;2022-12-18T00:24:03;48.90;;;23.90;;
37019;SDS011;22932;52.442;16.896;2022-12-18T00:26:34;36.10;;;17.30;;
37019;SDS011;22932;52.442;16.896;2022-12-18T00:29:06;42.00;;;19.70;;
37019;SDS011;22932;52.442;16.896;2022-12-18T00:31:40;49.20;;;23.70;;
37019;SDS011;22932;52.442;16.896;2022-12-18T00:34:11;49.60;;;24.00;;
37019;SDS011;22932;52.442;16.896;2022-12-18T00:36:41;50.30;;;24.60;;
37019;SDS011;22932;52.442;16.896;2022-12-18T00:39:11;44.40;;;23.00;;
37019;SDS011;22932;52.442;16.896;2022-12-18T00:41:40;47.50;;;21.30;;
37019;SDS011;22932;52.442;16.896;2022-12-18T00:44:27;56.30;;;24.70;;
37019;SDS011;22932;52.442;16.896;2022-12-18T00:46:57;49.40;;;23.00;;
37019;SDS011;22932;52.442;16.896;2022-12-18T00:49:26;51.10;;;26.40;;
37019;SDS011;22932;52.442;16.896;2022-12-18T00:51:56;39.50;;;19.40;;
37019;SDS011;22932;52.442;16.896;2022-12-18T00:54:25;46.00;;;23.90;;
37019;SDS011;22932;52.442;16.896;2022-12-18T00:56:55;52.70;;;24.60;;
37019;SDS011;22932;52.442;16.896;2022-12-18T00:59:24;51.70;;;24.80;;
37019;SDS011;22932;52.442;16.896;2022-12-18T01:01:54;44.60;;;21.80;;
37019;SDS011;22932;52.442;16.896;2022-12-18T01:04:23;50.10;;;23.40;;
37019;SDS011;22932;52.442;16.896;2022-12-18T01:06:53;44.10;;;21.90;;
37019;SDS011;22932;52.442;16.896;2022-12-18T01:09:22;51.90;;;24.60;;
37019;SDS011;22932;52.442;16.896;2022-12-18T01:11:52;38.10;;;18.20;;
37019;SDS011;22932;52.442;16.896;2022-12-18T01:14:21;54.80;;;23.00;;
37019;SDS011;22932;52.442;16.896;2022-12-18T01:16:51;52.50;;;24.40;;
37019;SDS011;22932;52.442;16.896;2022-12-18T01:19:20;39.30;;;18.60;;
37019;SDS011;22932;52.442;16.896;2022-12-18T07:06:02;43.00;;;20.60;;
37019;SDS011;22932;52.442;16.896;2022-12-18T07:08:33;47.40;;;20.20;;
37019;SDS011;22932;52.442;16.896;2022-12-18T07:11:04;52.00;;;22.60;;
37019;SDS011;22932;52.442;16.896;2022-12-18T07:13:33;52.40;;;23.20;;
37019;SDS011;22932;52.442;16.896;2022-12-18T07:16:09;56.80;;;24.80;;
37019;SDS011;22932;52.442;16.896;2022-12-18T07:18:40;55.70;;;23.00;;
37019;SDS011;22932;52.442;16.896;2022-12-18T07:21:11;50.20;;;20.50;;
37019;SDS011;22932;52.442;16.896;2022-12-18T07:23:42;54.10;;;23.30;;
37019;SDS011;22932;52.442;16.896;2022-12-18T07:26:14;50.30;;;24.10;;
37019;SDS011;22932;52.442;16.896;2022-12-18T07:28:46;49.80;;;23.50;;
37019;SDS011;22932;52.442;16.896;2022-12-18T07:31:16;55.80;;;21.00;;
37019;SDS011;22932;52.442;16.896;2022-12-18T07:33:47;40.30;;;17.90;;
37019;SDS011;22932;52.442;16.896;2022-12-18T07:36:18;46.30;;;18.20;;
37019;SDS011;22932;52.442;16.896;2022-12-18T07:38:48;50.30;;;22.10;;
37019;SDS011;22932;52.442;16.896;2022-12-18T07:41:19;55.60;;;22.50;;
37019;SDS011;22932;52.442;16.896;2022-12-18T07:43:48;53.00;;;21.00;;
37019;SDS011;22932;52.442;16.896;2022-12-18T07:46:18;54.30;;;22.70;;
37019;SDS011;22932;52.442;16.896;2022-12-18T07:48:47;58.10;;;24.30;;
37019;SDS011;22932;52.442;16.896;2022-12-18T07:51:17;55.70;;;24.30;;
37019;SDS011;22932;52.442;16.896;2022-12-18T07:53:47;66.20;;;26.20;;
37019;SDS011;22932;52.442;16.896;2022-12-18T07:56:16;55.90;;;25.20;;
37019;SDS011;22932;52.442;16.896;2022-12-18T07:58:46;54.60;;;21.60;;
37019;SDS011;22932;52.442;16.896;2022-12-18T08:01:15;53.00;;;23.70;;
37019;SDS011;22932;52.442;16.896;2022-12-18T08:03:45;56.60;;;24.40;;
37019;SDS011;22932;52.442;16.896;2022-12-18T08:06:14;54.00;;;23.40;;
37019;SDS011;22932;52.442;16.896;2022-12-18T08:08:44;54.50;;;23.90;;
37019;SDS011;22932;52.442;16.896;2022-12-18T08:11:13;58.10;;;24.90;;
37019;SDS011;22932;52.442;16.896;2022-12-18T08:13:42;57.50;;;25.50;;
37019;SDS011;22932;52.442;16.896;2022-12-18T08:16:12;47.00;;;24.30;;
37019;SDS011;22932;52.442;16.896;2022-12-18T08:18:41;48.70;;;23.20;;
37019;SDS011;22932;52.442;16.896;2022-12-18T08:21:11;50.90;;;24.30;;
37019;SDS011;22932;52.442;16.896;2022-12-18T08:23:43;57.80;;;24.00;;
37019;SDS011;22932;52.442;16.896;2022-12-18T08:26:12;57.40;;;24.80;;
37019;SDS011;22932;52.442;16.896;2022-12-18T08:28:43;59.30;;;25.30;;
37019;SDS011;22932;52.442;16.896;2022-12-18T08:31:13;65.20;;;29.30;;
37019;SDS011;22932;52.442;16.896;2022-12-18T08:33:42;66.80;;;28.70;;
37019;SDS011;22932;52.442;16.896;2022-12-18T08:36:12;56.80;;;24.20;;
37019;SDS011;22932;52.442;16.896;2022-12-18T08:38:41;59.70;;;27.90;;
37019;SDS011;22932;52.442;16.896;2022-12-18T08:41:11;58.80;;;27.20;;
37019;SDS011;22932;52.442;16.896;2022-12-18T08:43:42;58.60;;;26.60;;
37019;SDS011;22932;52.442;16.896;2022-12-18T08:46:35;51.40;;;25.00;;
37019;SDS011;22932;52.442;16.896;2022-12-18T08:49:06;58.30;;;24.10;;
37019;SDS011;22932;52.442;16.896;2022-12-18T08:51:37;58.60;;;24.90;;
37019;SDS011;22932;52.442;16.896;2022-12-18T08:54:07;51.10;;;23.80;;
37019;SDS011;22932;52.442;16.896;2022-12-18T08:56:38;54.40;;;24.30;;
37019;SDS011;22932;52.442;16.896;2022-12-18T08:59:08;63.40;;;27.20;;
37019;SDS011;22932;52.442;16.896;2022-12-18T09:01:37;57.60;;;23.40;;
37019;SDS011;22932;52.442;16.896;2022-12-18T09:04:07;55.50;;;23.30;;
37019;SDS011;22932;52.442;16.896;2022-12-18T09:06:37;50.20;;;24.10;;
37019;SDS011;22932;52.442;16.896;2022-12-18T09:09:06;62.90;;;24.50;;
37019;SDS011;22932;52.442;16.896;2022-12-18T09:11:36;59.20;;;27.30;;
37019;SDS011;22932;52.442;16.896;2022-12-18T09:14:06;66.20;;;30.90;;
37019;SDS011;22932;52.442;16.896;2022-12-18T09:19:05;56.60;;;25.80;;
37019;SDS011;22932;52.442;16.896;2022-12-18T09:21:34;52.70;;;25.70;;
37019;SDS011;22932;52.442;16.896;2022-12-18T09:24:08;57.30;;;27.80;;
37019;SDS011;22932;52.442;16.896;2022-12-18T09:26:41;57.80;;;27.50;;
37019;SDS011;22932;52.442;16.896;2022-12-18T09:29:11;55.70;;;26.30;;
37019;SDS011;22932;52.442;16.896;2022-12-18T09:31:41;55.20;;;27.30;;
37019;SDS011;22932;52.442;16.896;2022-12-18T09:34:10;55.00;;;28.20;;
37019;SDS011;22932;52.442;16.896;2022-12-18T09:36:40;55.70;;;27.90;;
37019;SDS011;22932;52.442;16.896;2022-12-18T09:39:09;57.10;;;26.70;;
37019;SDS011;22932;52.442;16.896;2022-12-18T09:41:43;54.30;;;25.60;;
37019;SDS011;22932;52.442;16.896;2022-12-18T09:44:23;63.30;;;28.40;;
37019;SDS011;22932;52.442;16.896;2022-12-18T09:46:58;54.20;;;27.30;;
37019;SDS011;22932;52.442;16.896;2022-12-18T09:49:34;54.30;;;27.80;;
37019;SDS011;22932;52.442;16.896;2022-12-18T09:52:11;52.70;;;27.20;;
37019;SDS011;22932;52.442;16.896;2022-12-18T09:54:45;62.40;;;30.90;;
37019;SDS011;22932;52.442;16.896;2022-12-18T09:57:20;58.90;;;29.20;;
37019;SDS011;22932;52.442;16.896;2022-12-18T09:59:54;57.60;;;29.20;;
37019;SDS011;22932;52.442;16.896;2022-12-18T10:02:26;66.10;;;32.20;;
37019;SDS011;22932;52.442;16.896;2022-12-18T10:05:04;65.90;;;33.50;;
37019;SDS011;22932;52.442;16.896;2022-12-18T10:07:49;65.20;;;33.20;;
37019;SDS011;22932;52.442;16.896;2022-12-18T10:10:32;66.80;;;34.70;;
37019;SDS011;22932;52.442;16.896;2022-12-18T10:13:09;70.20;;;35.60;;
37019;SDS011;22932;52.442;16.896;2022-12-18T10:15:51;68.20;;;32.60;;
37019;SDS011;22932;52.442;16.896;2022-12-18T10:18:35;63.00;;;34.30;;
37019;SDS011;22932;52.442;16.896;2022-12-18T10:21:25;61.50;;;31.00;;
37019;SDS011;22932;52.442;16.896;2022-12-18T10:24:01;67.60;;;33.90;;
37019;SDS011;22932;52.442;16.896;2022-12-18T10:26:40;63.40;;;32.70;;
37019;SDS011;22932;52.442;16.896;2022-12-18T10:31:40;59.00;;;29.40;;
37019;SDS011;22932;52.442;16.896;2022-12-18T10:34:10;63.00;;;31.40;;
37019;SDS011;22932;52.442;16.896;2022-12-18T10:36:40;60.40;;;32.00;;
37019;SDS011;22932;52.442;16.896;2022-12-18T10:39:17;56.30;;;30.90;;
37019;SDS011;22932;52.442;16.896;2022-12-18T10:41:49;62.10;;;32.20;;
37019;SDS011;22932;52.442;16.896;2022-12-18T10:44:19;61.00;;;30.10;;
37019;SDS011;22932;52.442;16.896;2022-12-18T10:46:53;55.00;;;30.30;;
37019;SDS011;22932;52.442;16.896;2022-12-18T10:49:31;54.50;;;29.90;;
37019;SDS011;22932;52.442;16.896;2022-12-18T10:52:06;61.70;;;32.90;;
37019;SDS011;22932;52.442;16.896;2022-12-18T10:54:45;56.00;;;30.10;;
37019;SDS011;22932;52.442;16.896;2022-12-18T10:57:19;57.10;;;31.60;;
37019;SDS011;22932;52.442;16.896;2022-12-18T11:00:01;61.70;;;31.40;;
37019;SDS011;22932;52.442;16.896;2022-12-18T11:02:51;59.70;;;31.90;;
37019;SDS011;22932;52.442;16.896;2022-12-18T11:05:25;59.40;;;31.20;;
37019;SDS011;22932;52.442;16.896;2022-12-18T11:07:57;58.70;;;30.70;;
37019;SDS011;22932;52.442;16.896;2022-12-18T11:10:30;54.20;;;32.70;;
37019;SDS011;22932;52.442;16.896;2022-12-18T11:13:16;57.90;;;31.70;;
37019;SDS011;22932;52.442;16.896;2022-12-18T11:15:48;59.50;;;32.40;;
37019;SDS011;22932;52.442;16.896;2022-12-18T11:18:19;58.70;;;31.90;;
37019;SDS011;22932;52.442;16.896;2022-12-18T11:20:54;53.10;;;30.90;;
37019;SDS011;22932;52.442;16.896;2022-12-18T11:23:26;56.70;;;31.80;;
37019;SDS011;22932;52.442;16.896;2022-12-18T11:25:57;63.00;;;35.70;;
37019;SDS011;22932;52.442;16.896;2022-12-18T11:28:33;59.00;;;34.00;;
37019;SDS011;22932;52.442;16.896;2022-12-18T11:31:15;60.70;;;33.80;;
37019;SDS011;22932;52.442;16.896;2022-12-18T11:33:52;58.50;;;33.80;;
37019;SDS011;22932;52.442;16.896;2022-12-18T11:36:29;63.80;;;34.40;;
37019;SDS011;22932;52.442;16.896;2022-12-18T11:39:07;61.00;;;33.20;;
37019;SDS011;22932;52.442;16.896;2022-12-18T11:41:45;56.30;;;33.00;;
37019;SDS011;22932;52.442;16.896;2022-12-18T11:44:38;60.80;;;34.40;;
37019;SDS011;22932;52.442;16.896;2022-12-18T11:47:23;59.60;;;32.30;;
37019;SDS011;22932;52.442;16.896;2022-12-18T11:49:59;51.40;;;29.30;;
37019;SDS011;22932;52.442;16.896;2022-12-18T11:52:31;52.70;;;30.90;;
37019;SDS011;22932;52.442;16.896;2022-12-18T11:55:09;50.90;;;31.20;;
37019;SDS011;22932;52.442;16.896;2022-12-18T11:57:43;52.70;;;31.20;;
37019;SDS011;22932;52.442;16.896;2022-12-18T12:00:28;47.10;;;27.90;;
37019;SDS011;22932;52.442;16.896;2022-12-18T12:03:17;48.70;;;29.30;;
37019;SDS011;22932;52.442;16.896;2022-12-18T12:05:58;51.20;;;30.20;;
37019;SDS011;22932;52.442;16.896;2022-12-18T12:08:38;50.30;;;31.50;;
37019;SDS011;22932;52.442;16.896;2022-12-18T12:11:19;52.30;;;31.10;;
37019;SDS011;22932;52.442;16.896;2022-12-18T12:14:02;48.10;;;28.60;;
37019;SDS011;22932;52.442;16.896;2022-12-18T12:16:43;47.20;;;28.20;;
37019;SDS011;22932;52.442;16.896;2022-12-18T12:19:21;44.70;;;25.90;;
37019;SDS011;22932;52.442;16.896;2022-12-18T12:22:03;43.50;;;26.60;;
37019;SDS011;22932;52.442;16.896;2022-12-18T12:24:39;43.30;;;25.30;;
37019;SDS011;22932;52.442;16.896;2022-12-18T12:27:20;44.90;;;27.20;;
37019;SDS011;22932;52.442;16.896;2022-12-18T12:30:00;39.50;;;24.00;;
37019;SDS011;22932;52.442;16.896;2022-12-18T12:32:53;46.10;;;24.80;;
37019;SDS011;22932;52.442;16.896;2022-12-18T12:35:35;39.80;;;24.30;;
37019;SDS011;22932;52.442;16.896;2022-12-18T12:38:12;42.80;;;25.60;;
37019;SDS011;22932;52.442;16.896;2022-12-18T12:40:47;45.80;;;26.90;;
37019;SDS011;22932;52.442;16.896;2022-12-18T12:43:32;44.00;;;24.80;;
37019;SDS011;22932;52.442;16.896;2022-12-18T12:46:07;41.30;;;26.00;;
37019;SDS011;22932;52.442;16.896;2022-12-18T12:48:43;40.50;;;23.80;;
37019;SDS011;22932;52.442;16.896;2022-12-18T12:51:15;40.40;;;24.90;;
37019;SDS011;22932;52.442;16.896;2022-12-18T12:53:48;49.50;;;27.40;;
37019;SDS011;22932;52.442;16.896;2022-12-18T12:56:20;45.40;;;27.70;;
37019;SDS011;22932;52.442;16.896;2022-12-18T12:58:54;47.10;;;29.10;;
37019;SDS011;22932;52.442;16.896;2022-12-18T13:01:37;51.00;;;29.70;;
37019;SDS011;22932;52.442;16.896;2022-12-18T13:04:18;50.20;;;30.70;;
37019;SDS011;22932;52.442;16.896;2022-12-18T13:06:57;51.30;;;28.90;;
37019;SDS011;22932;52.442;16.896;2022-12-18T13:09:31;40.10;;;25.60;;
37019;SDS011;22932;52.442;16.896;2022-12-18T13:12:03;41.40;;;23.60;;
37019;SDS011;22932;52.442;16.896;2022-12-18T13:14:56;41.10;;;24.50;;
37019;SDS011;22932;52.442;16.896;2022-12-18T13:17:48;41.70;;;26.90;;
37019;SDS011;22932;52.442;16.896;2022-12-18T13:20:33;50.80;;;28.40;;
37019;SDS011;22932;52.442;16.896;2022-12-18T15:26:04;64.60;;;33.50;;
37019;SDS011;22932;52.442;16.896;2022-12-18T15:28:35;60.60;;;33.60;;
37019;SDS011;22932;52.442;16.896;2022-12-18T15:31:19;58.00;;;33.30;;
37019;SDS011;22932;52.442;16.896;2022-12-18T15:34:05;52.90;;;30.70;;
37019;SDS011;22932;52.442;16.896;2022-12-18T15:36:40;59.90;;;33.20;;
37019;SDS011;22932;52.442;16.896;2022-12-18T15:39:12;59.40;;;31.30;;
37019;SDS011;22932;52.442;16.896;2022-12-18T15:41:42;58.50;;;31.80;;
37019;SDS011;22932;52.442;16.896;2022-12-18T15:44:26;64.30;;;32.00;;
37019;SDS011;22932;52.442;16.896;2022-12-18T15:46:56;51.70;;;30.70;;
37019;SDS011;22932;52.442;16.896;2022-12-18T15:49:26;55.40;;;30.70;;
37019;SDS011;22932;52.442;16.896;2022-12-18T15:51:56;54.30;;;30.50;;
37019;SDS011;22932;52.442;16.896;2022-12-18T15:54:27;51.60;;;29.50;;
37019;SDS011;22932;52.442;16.896;2022-12-18T15:57:14;52.90;;;30.30;;
37019;SDS011;22932;52.442;16.896;2022-12-18T15:59:50;56.80;;;30.30;;
37019;SDS011;22932;52.442;16.896;2022-12-18T16:02:23;49.30;;;27.60;;
37019;SDS011;22932;52.442;16.896;2022-12-18T16:04:54;43.30;;;27.10;;
37019;SDS011;22932;52.442;16.896;2022-12-18T16:07:24;50.10;;;30.10;;
37019;SDS011;22932;52.442;16.896;2022-12-18T16:09:54;51.70;;;28.90;;
37019;SDS011;22932;52.442;16.896;2022-12-18T16:12:24;51.20;;;27.50;;
37019;SDS011;22932;52.442;16.896;2022-12-18T16:14:54;48.20;;;28.70;;
37019;SDS011;22932;52.442;16.896;2022-12-18T16:17:23;54.20;;;28.10;;
37019;SDS011;22932;52.442;16.896;2022-12-18T16:19:53;51.50;;;28.70;;
37019;SDS011;22932;52.442;16.896;2022-12-18T16:22:23;54.90;;;30.60;;
37019;SDS011;22932;52.442;16.896;2022-12-18T16:24:55;52.90;;;28.00;;
37019;SDS011;22932;52.442;16.896;2022-12-18T16:29:53;53.90;;;29.50;;
37019;SDS011;22932;52.442;16.896;2022-12-18T16:32:23;54.40;;;30.30;;
37019;SDS011;22932;52.442;16.896;2022-12-18T16:34:52;49.70;;;27.40;;
37019;SDS011;22932;52.442;16.896;2022-12-18T16:37:27;55.30;;;29.20;;
37019;SDS011;22932;52.442;16.896;2022-12-18T16:39:56;49.30;;;28.10;;
37019;SDS011;22932;52.442;16.896;2022-12-18T16:42:26;54.70;;;28.40;;
37019;SDS011;22932;52.442;16.896;2022-12-18T16:44:55;53.40;;;27.40;;
37019;SDS011;22932;52.442;16.896;2022-12-18T16:47:25;50.60;;;30.50;;
37019;SDS011;22932;52.442;16.896;2022-12-18T16:49:54;59.60;;;32.40;;
37019;SDS011;22932;52.442;16.896;2022-12-18T16:52:24;60.50;;;34.80;;
37019;SDS011;22932;52.442;16.896;2022-12-18T16:54:53;62.40;;;33.80;;
37019;SDS011;22932;52.442;16.896;2022-12-18T16:57:23;59.30;;;32.50;;
37019;SDS011;22932;52.442;16.896;2022-12-18T16:59:52;60.90;;;33.30;;
37019;SDS011;22932;52.442;16.896;2022-12-18T17:02:23;56.60;;;32.90;;
37019;SDS011;22932;52.442;16.896;2022-12-18T17:04:54;65.60;;;37.50;;
37019;SDS011;22932;52.442;16.896;2022-12-18T17:07:25;70.80;;;38.50;;
37019;SDS011;22932;52.442;16.896;2022-12-18T17:09:55;73.30;;;40.10;;
37019;SDS011;22932;52.442;16.896;2022-12-18T17:12:24;79.20;;;40.90;;
37019;SDS011;22932;52.442;16.896;2022-12-18T17:14:54;75.80;;;39.60;;
37019;SDS011;22932;52.442;16.896;2022-12-18T17:17:23;69.20;;;37.30;;
37019;SDS011;22932;52.442;16.896;2022-12-18T17:19:53;66.10;;;37.20;;
37019;SDS011;22932;52.442;16.896;2022-12-18T17:22:22;64.10;;;37.50;;
37019;SDS011;22932;52.442;16.896;2022-12-18T17:24:52;73.80;;;39.40;;
37019;SDS011;22932;52.442;16.896;2022-12-18T17:27:21;69.80;;;39.10;;
37019;SDS011;22932;52.442;16.896;2022-12-18T17:29:51;70.90;;;37.70;;
37019;SDS011;22932;52.442;16.896;2022-12-18T17:32:21;68.40;;;37.80;;
37019;SDS011;22932;52.442;16.896;2022-12-18T17:34:50;65.00;;;35.00;;
37019;SDS011;22932;52.442;16.896;2022-12-18T17:37:20;64.60;;;36.90;;
37019;SDS011;22932;52.442;16.896;2022-12-18T17:39:51;68.80;;;36.50;;
37019;SDS011;22932;52.442;16.896;2022-12-18T17:42:21;65.20;;;36.80;;
37019;SDS011;22932;52.442;16.896;2022-12-18T17:44:51;66.30;;;35.40;;
37019;SDS011;22932;52.442;16.896;2022-12-18T17:47:21;69.30;;;36.60;;
37019;SDS011;22932;52.442;16.896;2022-12-18T17:49:50;71.00;;;36.80;;
37019;SDS011;22932;52.442;16.896;2022-12-18T17:52:20;58.10;;;32.80;;
37019;SDS011;22932;52.442;16.896;2022-12-18T17:54:49;61.50;;;33.30;;
37019;SDS011;22932;52.442;16.896;2022-12-18T17:57:19;59.70;;;34.80;;
37019;SDS011;22932;52.442;16.896;2022-12-18T17:59:49;64.80;;;35.30;;
37019;SDS011;22932;52.442;16.896;2022-12-18T18:02:18;61.20;;;33.90;;
37019;SDS011;22932;52.442;16.896;2022-12-18T18:04:48;59.20;;;32.10;;
37019;SDS011;22932;52.442;16.896;2022-12-18T18:07:17;54.30;;;32.70;;
37019;SDS011;22932;52.442;16.896;2022-12-18T18:09:47;61.10;;;33.50;;
37019;SDS011;22932;52.442;16.896;2022-12-18T18:12:16;62.50;;;33.60;;
37019;SDS011;22932;52.442;16.896;2022-12-18T18:15:03;62.80;;;35.20;;
37019;SDS011;22932;52.442;16.896;2022-12-18T18:17:34;66.60;;;36.70;;
37019;SDS011;22932;52.442;16.896;2022-12-18T18:20:04;76.90;;;35.20;;
37019;SDS011;22932;52.442;16.896;2022-12-18T18:22:34;64.50;;;33.80;;
37019;SDS011;22932;52.442;16.896;2022-12-18T18:25:04;61.70;;;33.50;;
37019;SDS011;22932;52.442;16.896;2022-12-18T18:27:34;62.80;;;34.60;;
37019;SDS011;22932;52.442;16.896;2022-12-18T18:30:05;68.90;;;36.00;;
37019;SDS011;22932;52.442;16.896;2022-12-18T18:32:36;64.30;;;34.00;;
37019;SDS011;22932;52.442;16.896;2022-12-18T18:35:06;68.00;;;35.80;;
37019;SDS011;22932;52.442;16.896;2022-12-18T18:37:37;70.60;;;36.80;;
37019;SDS011;22932;52.442;16.896;2022-12-18T18:40:08;77.70;;;37.10;;
37019;SDS011;22932;52.442;16.896;2022-12-18T18:42:38;70.20;;;37.70;;
37019;SDS011;22932;52.442;16.896;2022-12-18T18:45:09;66.30;;;34.50;;
37019;SDS011;22932;52.442;16.896;2022-12-18T18:47:38;63.50;;;36.30;;
37019;SDS011;22932;52.442;16.896;2022-12-18T18:50:08;63.60;;;34.10;;
37019;SDS011;22932;52.442;16.896;2022-12-18T18:52:38;65.70;;;34.40;;
37019;SDS011;22932;52.442;16.896;2022-12-18T18:55:08;65.80;;;34.30;;
37019;SDS011;22932;52.442;16.896;2022-12-18T18:57:38;62.50;;;35.50;;
37019;SDS011;22932;52.442;16.896;2022-12-18T19:00:09;60.80;;;30.90;;
37019;SDS011;22932;52.442;16.896;2022-12-18T19:02:40;67.80;;;34.00;;
37019;SDS011;22932;52.442;16.896;2022-12-18T19:05:10;65.70;;;35.00;;
37019;SDS011;22932;52.442;16.896;2022-12-18T19:07:39;71.90;;;35.70;;
37019;SDS011;22932;52.442;16.896;2022-12-18T19:10:09;58.00;;;26.90;;
37019;SDS011;22932;52.442;16.896;2022-12-18T19:12:39;67.40;;;34.50;;
37019;SDS011;22932;52.442;16.896;2022-12-18T19:15:26;67.50;;;34.60;;
37019;SDS011;22932;52.442;16.896;2022-12-18T19:17:55;68.50;;;34.10;;
37019;SDS011;22932;52.442;16.896;2022-12-18T19:20:25;64.60;;;34.00;;
37019;SDS011;22932;52.442;16.896;2022-12-18T19:22:55;69.30;;;34.40;;
37019;SDS011;22932;52.442;16.896;2022-12-18T19:25:25;61.20;;;33.40;;
37019;SDS011;22932;52.442;16.896;2022-12-18T19:27:58;63.50;;;31.10;;
37019;SDS011;22932;52.442;16.896;2022-12-18T19:30:28;66.60;;;33.60;;
37019;SDS011;22932;52.442;16.896;2022-12-18T19:32:57;66.70;;;34.00;;
37019;SDS011;22932;52.442;16.896;2022-12-18T19:35:29;62.60;;;35.00;;
37019;SDS011;22932;52.442;16.896;2022-12-18T19:37:58;66.10;;;32.60;;
37019;SDS011;22932;52.442;16.896;2022-12-18T19:40:28;63.10;;;34.50;;
37019;SDS011;22932;52.442;16.896;2022-12-18T19:42:57;63.00;;;32.60;;
37019;SDS011;22932;52.442;16.896;2022-12-18T19:45:27;68.70;;;35.40;;
37019;SDS011;22932;52.442;16.896;2022-12-18T19:47:57;67.10;;;33.70;;
37019;SDS011;22932;52.442;16.896;2022-12-18T19:50:26;55.40;;;27.10;;
37019;SDS011;22932;52.442;16.896;2022-12-18T19:52:56;64.10;;;33.60;;
37019;SDS011;22932;52.442;16.896;2022-12-18T19:55:25;62.60;;;33.30;;
37019;SDS011;22932;52.442;16.896;2022-12-18T19:57:55;61.30;;;31.20;;
37019;SDS011;22932;52.442;16.896;2022-12-18T20:00:24;57.40;;;31.70;;
37019;SDS011;22932;52.442;16.896;2022-12-18T20:02:54;59.00;;;32.00;;
37019;SDS011;22932;52.442;16.896;2022-12-18T20:05:24;62.20;;;30.50;;
37019;SDS011;22932;52.442;16.896;2022-12-18T20:07:54;56.40;;;29.50;;
37019;SDS011;22932;52.442;16.896;2022-12-18T20:10:23;52.80;;;26.30;;
37019;SDS011;22932;52.442;16.896;2022-12-18T20:12:53;62.00;;;30.60;;
37019;SDS011;22932;52.442;16.896;2022-12-18T20:15:22;61.30;;;32.30;;
37019;SDS011;22932;52.442;16.896;2022-12-18T20:17:52;50.40;;;29.20;;
37019;SDS011;22932;52.442;16.896;2022-12-18T20:20:21;56.70;;;29.30;;
37019;SDS011;22932;52.442;16.896;2022-12-18T20:22:51;55.20;;;27.60;;
37019;SDS011;22932;52.442;16.896;2022-12-18T20:25:20;50.10;;;25.30;;
37019;SDS011;22932;52.442;16.896;2022-12-18T20:27:50;54.20;;;28.70;;
37019;SDS011;22932;52.442;16.896;2022-12-18T20:30:19;61.80;;;31.20;;
37019;SDS011;22932;52.442;16.896;2022-12-18T20:32:49;60.30;;;31.90;;
37019;SDS011;22932;52.442;16.896;2022-12-18T20:35:18;69.90;;;34.70;;
37019;SDS011;22932;52.442;16.896;2022-12-18T20:37:48;70.40;;;33.10;;
37019;SDS011;22932;52.442;16.896;2022-12-18T20:40:17;62.90;;;32.10;;
37019;SDS011;22932;52.442;16.896;2022-12-18T20:42:47;61.30;;;30.30;;
37019;SDS011;22932;52.442;16.896;2022-12-18T20:45:16;65.30;;;32.00;;
37019;SDS011;22932;52.442;16.896;2022-12-18T20:47:46;64.70;;;32.40;;
37019;SDS011;22932;52.442;16.896;2022-12-18T20:50:16;63.50;;;31.90;;
37019;SDS011;22932;52.442;16.896;2022-12-18T20:52:45;62.40;;;31.50;;
37019;SDS011;22932;52.442;16.896;2022-12-18T20:55:15;53.00;;;27.40;;
37019;SDS011;22932;52.442;16.896;2022-12-18T20:57:45;64.90;;;32.90;;
37019;SDS011;22932;52.442;16.896;2022-12-18T21:00:15;63.80;;;33.00;;
37019;SDS011;22932;52.442;16.896;2022-12-18T21:02:45;64.00;;;31.30;;
37019;SDS011;22932;52.442;16.896;2022-12-18T21:05:14;60.00;;;32.00;;
37019;SDS011;22932;52.442;16.896;2022-12-18T21:07:44;55.90;;;26.80;;
37019;SDS011;22932;52.442;16.896;2022-12-18T21:10:14;66.90;;;33.90;;
37019;SDS011;22932;52.442;16.896;2022-12-18T21:12:43;57.90;;;27.30;;
37019;SDS011;22932;52.442;16.896;2022-12-18T21:15:14;60.90;;;33.20;;
37019;SDS011;22932;52.442;16.896;2022-12-18T21:17:45;72.10;;;34.70;;
37019;SDS011;22932;52.442;16.896;2022-12-18T21:20:14;69.40;;;34.90;;
37019;SDS011;22932;52.442;16.896;2022-12-18T21:22:44;64.80;;;32.80;;
37019;SDS011;22932;52.442;16.896;2022-12-18T21:25:15;73.90;;;34.90;;
37019;SDS011;22932;52.442;16.896;2022-12-18T21:27:44;67.60;;;37.00;;
37019;SDS011;22932;52.442;16.896;2022-12-18T21:30:14;70.50;;;35.40;;
37019;SDS011;22932;52.442;16.896;2022-12-18T21:32:43;53.60;;;27.20;;
37019;SDS011;22932;52.442;16.896;2022-12-18T21:35:13;69.50;;;34.70;;
37019;SDS011;22932;52.442;16.896;2022-12-18T21:37:43;64.70;;;31.50;;
37019;SDS011;22932;52.442;16.896;2022-12-18T21:40:12;78.80;;;37.20;;
37019;SDS011;22932;52.442;16.896;2022-12-18T21:42:42;73.40;;;37.10;;
37019;SDS011;22932;52.442;16.896;2022-12-18T21:45:29;70.90;;;35.30;;
37019;SDS011;22932;52.442;16.896;2022-12-18T21:47:59;72.90;;;35.70;;
37019;SDS011;22932;52.442;16.896;2022-12-18T21:50:28;77.80;;;36.60;;
37019;SDS011;22932;52.442;16.896;2022-12-18T21:52:58;80.30;;;36.60;;
37019;SDS011;22932;52.442;16.896;2022-12-18T21:55:27;77.80;;;38.80;;
37019;SDS011;22932;52.442;16.896;2022-12-18T21:57:57;74.20;;;37.50;;
37019;SDS011;22932;52.442;16.896;2022-12-18T22:00:26;83.30;;;38.30;;
37019;SDS011;22932;52.442;16.896;2022-12-18T22:02:56;84.40;;;39.10;;
37019;SDS011;22932;52.442;16.896;2022-12-18T22:05:25;79.40;;;40.30;;
37019;SDS011;22932;52.442;16.896;2022-12-18T22:07:55;78.50;;;38.00;;
37019;SDS011;22932;52.442;16.896;2022-12-18T22:10:24;87.80;;;41.20;;
37019;SDS011;22932;52.442;16.896;2022-12-18T22:12:53;86.40;;;39.60;;
37019;SDS011;22932;52.442;16.896;2022-12-18T22:15:23;79.90;;;39.30;;
37019;SDS011;22932;52.442;16.896;2022-12-18T22:17:52;81.50;;;41.10;;
37019;SDS011;22932;52.442;16.896;2022-12-18T22:20:22;86.30;;;43.10;;
37019;SDS011;22932;52.442;16.896;2022-12-18T22:22:51;89.00;;;43.40;;
37019;SDS011;22932;52.442;16.896;2022-12-18T22:25:21;84.70;;;42.90;;
37019;SDS011;22932;52.442;16.896;2022-12-18T22:27:50;85.90;;;42.20;;
37019;SDS011;22932;52.442;16.896;2022-12-18T22:30:37;87.50;;;42.50;;
37019;SDS011;22932;52.442;16.896;2022-12-18T22:33:07;86.90;;;43.80;;